Agnew, Nebraska
Current Conditions -  °F | °C
As of 3:54 PM on Tuesday 25 Nov 2014 (Local Time) from KLNK Reporting Station
Clear Clear  
Wind Chill: 42°   Ceiling: Unl
Heat Index: 47°   Visibility: 10mi
Dew Point: 23°   Wind: 12mph
Humidity: 39%   Direction: 210°SSW
Pressure: 29.96"   Gusts: NA
Location:  40.9964°N, 96.8004°W
Report Text: KLNK 252154Z 21010KT 10SM CLR 08/M05 A2996 RMK AO2 SLP155 T00831050
Loading
Personal Weather Stations






























Interactive Weather Map New forecast layout! Learn more

10-Day Weather Forecast

Advertisements
Track Severe Weather on mobile